sensor_id;sensor_type;location;lat;lon;timestamp;temperature;humidity
63047;DHT22;62025;39.238;9.126;2023-12-20T00:01:54;10.70;66.70
63047;DHT22;62025;39.238;9.126;2023-12-20T00:04:20;10.30;66.50
63047;DHT22;62025;39.238;9.126;2023-12-20T00:06:46;10.00;66.10
63047;DHT22;62025;39.238;9.126;2023-12-20T00:09:12;10.00;66.40
63047;DHT22;62025;39.238;9.126;2023-12-20T00:11:38;10.10;66.50
63047;DHT22;62025;39.238;9.126;2023-12-20T00:14:04;10.00;66.60
63047;DHT22;62025;39.238;9.126;2023-12-20T00:16:30;9.90;67.40
63047;DHT22;62025;39.238;9.126;2023-12-20T00:18:57;9.80;67.30
63047;DHT22;62025;39.238;9.126;2023-12-20T00:21:23;9.80;67.30
63047;DHT22;62025;39.238;9.126;2023-12-20T00:23:49;9.80;67.60
63047;DHT22;62025;39.238;9.126;2023-12-20T00:26:15;9.80;67.90
63047;DHT22;62025;39.238;9.126;2023-12-20T00:28:41;9.70;68.20
63047;DHT22;62025;39.238;9.126;2023-12-20T00:31:08;9.70;67.90
63047;DHT22;62025;39.238;9.126;2023-12-20T00:33:34;9.50;68.40
63047;DHT22;62025;39.238;9.126;2023-12-20T00:36:00;9.40;68.90
63047;DHT22;62025;39.238;9.126;2023-12-20T00:38:27;9.70;69.20
63047;DHT22;62025;39.238;9.126;2023-12-20T00:40:53;9.70;68.90
63047;DHT22;62025;39.238;9.126;2023-12-20T00:43:19;9.60;68.80
63047;DHT22;62025;39.238;9.126;2023-12-20T00:45:45;9.50;68.70
63047;DHT22;62025;39.238;9.126;2023-12-20T00:48:11;9.40;68.50
63047;DHT22;62025;39.238;9.126;2023-12-20T00:50:37;9.40;68.40
63047;DHT22;62025;39.238;9.126;2023-12-20T00:53:03;9.30;68.50
63047;DHT22;62025;39.238;9.126;2023-12-20T00:55:29;9.30;68.50
63047;DHT22;62025;39.238;9.126;2023-12-20T00:57:55;9.30;68.50
63047;DHT22;62025;39.238;9.126;2023-12-20T01:00:21;9.30;68.20
63047;DHT22;62025;39.238;9.126;2023-12-20T01:02:47;9.30;68.20
63047;DHT22;62025;39.238;9.126;2023-12-20T01:05:15;9.20;68.20
63047;DHT22;62025;39.238;9.126;2023-12-20T01:07:41;9.40;68.30
63047;DHT22;62025;39.238;9.126;2023-12-20T01:10:07;9.70;67.00
63047;DHT22;62025;39.238;9.126;2023-12-20T01:12:35;9.80;66.60
63047;DHT22;62025;39.238;9.126;2023-12-20T01:15:01;9.80;66.30
63047;DHT22;62025;39.238;9.126;2023-12-20T01:17:27;9.90;66.20
63047;DHT22;62025;39.238;9.126;2023-12-20T01:19:53;10.00;65.90
63047;DHT22;62025;39.238;9.126;2023-12-20T01:22:19;10.00;65.60
63047;DHT22;62025;39.238;9.126;2023-12-20T01:24:45;9.90;65.50
63047;DHT22;62025;39.238;9.126;2023-12-20T01:27:11;10.00;65.20
63047;DHT22;62025;39.238;9.126;2023-12-20T01:29:37;10.00;65.10
63047;DHT22;62025;39.238;9.126;2023-12-20T01:32:04;10.00;65.10
63047;DHT22;62025;39.238;9.126;2023-12-20T01:34:30;10.00;65.30
63047;DHT22;62025;39.238;9.126;2023-12-20T01:36:56;10.10;65.70
63047;DHT22;62025;39.238;9.126;2023-12-20T01:39:23;10.00;66.30
63047;DHT22;62025;39.238;9.126;2023-12-20T01:41:49;10.00;66.80
63047;DHT22;62025;39.238;9.126;2023-12-20T01:44:15;10.10;66.90
63047;DHT22;62025;39.238;9.126;2023-12-20T01:46:41;10.10;67.30
63047;DHT22;62025;39.238;9.126;2023-12-20T01:49:07;10.20;68.00
63047;DHT22;62025;39.238;9.126;2023-12-20T01:51:34;10.20;68.90
63047;DHT22;62025;39.238;9.126;2023-12-20T01:54:01;10.20;69.90
63047;DHT22;62025;39.238;9.126;2023-12-20T01:56:29;10.20;70.50
63047;DHT22;62025;39.238;9.126;2023-12-20T01:58:56;10.30;71.30
63047;DHT22;62025;39.238;9.126;2023-12-20T02:01:22;10.30;71.50
63047;DHT22;62025;39.238;9.126;2023-12-20T02:03:49;10.30;71.90
63047;DHT22;62025;39.238;9.126;2023-12-20T02:06:16;10.40;72.50
63047;DHT22;62025;39.238;9.126;2023-12-20T02:08:43;10.40;72.80
63047;DHT22;62025;39.238;9.126;2023-12-20T02:11:10;10.40;73.20
63047;DHT22;62025;39.238;9.126;2023-12-20T02:13:36;10.40;73.20
63047;DHT22;62025;39.238;9.126;2023-12-20T02:16:02;10.50;73.40
63047;DHT22;62025;39.238;9.126;2023-12-20T02:18:28;10.50;73.50
63047;DHT22;62025;39.238;9.126;2023-12-20T02:20:54;10.50;73.40
63047;DHT22;62025;39.238;9.126;2023-12-20T02:23:22;10.50;73.60
63047;DHT22;62025;39.238;9.126;2023-12-20T02:25:48;10.50;73.80
63047;DHT22;62025;39.238;9.126;2023-12-20T02:28:14;10.50;73.90
63047;DHT22;62025;39.238;9.126;2023-12-20T02:30:40;10.60;73.90
63047;DHT22;62025;39.238;9.126;2023-12-20T02:33:08;10.50;73.80
63047;DHT22;62025;39.238;9.126;2023-12-20T02:35:37;10.50;73.90
63047;DHT22;62025;39.238;9.126;2023-12-20T02:38:03;10.60;74.10
63047;DHT22;62025;39.238;9.126;2023-12-20T02:40:29;10.60;74.20
63047;DHT22;62025;39.238;9.126;2023-12-20T02:42:55;10.60;74.40
63047;DHT22;62025;39.238;9.126;2023-12-20T02:45:21;10.70;74.60
63047;DHT22;62025;39.238;9.126;2023-12-20T02:47:47;10.70;74.80
63047;DHT22;62025;39.238;9.126;2023-12-20T02:50:13;10.70;75.00
63047;DHT22;62025;39.238;9.126;2023-12-20T02:52:39;10.70;75.10
63047;DHT22;62025;39.238;9.126;2023-12-20T02:55:05;10.70;75.30
63047;DHT22;62025;39.238;9.126;2023-12-20T02:57:31;10.80;75.40
63047;DHT22;62025;39.238;9.126;2023-12-20T02:59:59;10.80;75.50
63047;DHT22;62025;39.238;9.126;2023-12-20T03:02:25;10.80;75.60
63047;DHT22;62025;39.238;9.126;2023-12-20T03:04:50;10.80;75.60
63047;DHT22;62025;39.238;9.126;2023-12-20T03:07:16;10.80;75.80
63047;DHT22;62025;39.238;9.126;2023-12-20T03:09:42;10.80;75.80
63047;DHT22;62025;39.238;9.126;2023-12-20T03:12:08;10.80;75.80
63047;DHT22;62025;39.238;9.126;2023-12-20T03:14:34;10.90;75.80
63047;DHT22;62025;39.238;9.126;2023-12-20T03:17:00;10.90;75.90
63047;DHT22;62025;39.238;9.126;2023-12-20T03:19:26;10.90;75.80
63047;DHT22;62025;39.238;9.126;2023-12-20T03:21:52;10.90;75.80
63047;DHT22;62025;39.238;9.126;2023-12-20T03:24:19;10.90;75.80
63047;DHT22;62025;39.238;9.126;2023-12-20T03:26:45;10.90;75.80
63047;DHT22;62025;39.238;9.126;2023-12-20T03:29:11;10.90;75.80
63047;DHT22;62025;39.238;9.126;2023-12-20T03:31:37;10.90;75.90
63047;DHT22;62025;39.238;9.126;2023-12-20T03:34:03;11.00;75.80
63047;DHT22;62025;39.238;9.126;2023-12-20T03:36:29;10.90;75.90
63047;DHT22;62025;39.238;9.126;2023-12-20T03:38:55;11.00;75.90
63047;DHT22;62025;39.238;9.126;2023-12-20T03:41:21;11.00;75.80
63047;DHT22;62025;39.238;9.126;2023-12-20T03:43:46;11.00;75.80
63047;DHT22;62025;39.238;9.126;2023-12-20T03:46:12;11.00;75.70
63047;DHT22;62025;39.238;9.126;2023-12-20T03:48:38;11.00;75.80
63047;DHT22;62025;39.238;9.126;2023-12-20T03:51:05;10.90;75.70
63047;DHT22;62025;39.238;9.126;2023-12-20T03:53:31;10.90;75.80
63047;DHT22;62025;39.238;9.126;2023-12-20T03:55:57;10.90;75.70
63047;DHT22;62025;39.238;9.126;2023-12-20T03:58:23;10.90;75.70
63047;DHT22;62025;39.238;9.126;2023-12-20T04:00:49;10.90;75.50
63047;DHT22;62025;39.238;9.126;2023-12-20T04:03:15;10.90;75.20
63047;DHT22;62025;39.238;9.126;2023-12-20T04:05:41;10.80;75.00
63047;DHT22;62025;39.238;9.126;2023-12-20T04:08:07;10.80;74.90
63047;DHT22;62025;39.238;9.126;2023-12-20T04:10:34;10.80;74.70
63047;DHT22;62025;39.238;9.126;2023-12-20T04:13:00;10.80;74.60
63047;DHT22;62025;39.238;9.126;2023-12-20T04:15:26;10.80;74.70
63047;DHT22;62025;39.238;9.126;2023-12-20T04:17:52;10.80;74.70
63047;DHT22;62025;39.238;9.126;2023-12-20T04:20:18;10.80;74.70
63047;DHT22;62025;39.238;9.126;2023-12-20T04:22:44;10.70;74.60
63047;DHT22;62025;39.238;9.126;2023-12-20T04:25:10;10.70;74.60
63047;DHT22;62025;39.238;9.126;2023-12-20T04:27:36;10.70;74.60
63047;DHT22;62025;39.238;9.126;2023-12-20T04:30:02;10.70;74.40
63047;DHT22;62025;39.238;9.126;2023-12-20T04:32:28;10.70;74.50
63047;DHT22;62025;39.238;9.126;2023-12-20T04:34:54;10.60;74.40
63047;DHT22;62025;39.238;9.126;2023-12-20T04:37:20;10.60;74.50
63047;DHT22;62025;39.238;9.126;2023-12-20T04:39:46;10.70;74.60
63047;DHT22;62025;39.238;9.126;2023-12-20T04:42:12;10.60;74.70
63047;DHT22;62025;39.238;9.126;2023-12-20T04:44:38;10.70;74.50
63047;DHT22;62025;39.238;9.126;2023-12-20T04:47:04;10.70;74.60
63047;DHT22;62025;39.238;9.126;2023-12-20T04:49:30;10.70;74.60
63047;DHT22;62025;39.238;9.126;2023-12-20T04:51:56;10.70;74.50
63047;DHT22;62025;39.238;9.126;2023-12-20T04:54:22;10.70;74.30
63047;DHT22;62025;39.238;9.126;2023-12-20T04:56:48;10.70;74.30
63047;DHT22;62025;39.238;9.126;2023-12-20T04:59:15;10.60;74.40
63047;DHT22;62025;39.238;9.126;2023-12-20T05:01:41;10.70;74.00
63047;DHT22;62025;39.238;9.126;2023-12-20T05:04:07;10.60;74.00
63047;DHT22;62025;39.238;9.126;2023-12-20T05:06:33;10.70;73.90
63047;DHT22;62025;39.238;9.126;2023-12-20T05:08:59;10.60;73.90
63047;DHT22;62025;39.238;9.126;2023-12-20T05:11:25;10.60;73.40
63047;DHT22;62025;39.238;9.126;2023-12-20T05:13:51;10.60;73.30
63047;DHT22;62025;39.238;9.126;2023-12-20T05:16:17;10.60;73.20
63047;DHT22;62025;39.238;9.126;2023-12-20T05:18:48;10.60;72.80
63047;DHT22;62025;39.238;9.126;2023-12-20T05:21:18;10.50;73.10
63047;DHT22;62025;39.238;9.126;2023-12-20T05:23:45;10.50;73.30
63047;DHT22;62025;39.238;9.126;2023-12-20T05:26:11;10.50;73.30
63047;DHT22;62025;39.238;9.126;2023-12-20T05:28:37;10.50;73.30
63047;DHT22;62025;39.238;9.126;2023-12-20T05:31:03;10.40;73.40
63047;DHT22;62025;39.238;9.126;2023-12-20T05:33:29;10.50;73.30
63047;DHT22;62025;39.238;9.126;2023-12-20T05:35:55;10.50;73.10
63047;DHT22;62025;39.238;9.126;2023-12-20T05:38:21;10.40;73.00
63047;DHT22;62025;39.238;9.126;2023-12-20T05:40:47;10.40;73.30
63047;DHT22;62025;39.238;9.126;2023-12-20T05:43:13;10.40;73.50
63047;DHT22;62025;39.238;9.126;2023-12-20T05:45:39;10.30;73.80
63047;DHT22;62025;39.238;9.126;2023-12-20T05:48:05;10.30;73.80
63047;DHT22;62025;39.238;9.126;2023-12-20T05:50:31;10.30;73.90
63047;DHT22;62025;39.238;9.126;2023-12-20T05:52:57;10.30;74.10
63047;DHT22;62025;39.238;9.126;2023-12-20T05:55:23;10.40;74.00
63047;DHT22;62025;39.238;9.126;2023-12-20T05:57:49;10.40;74.00
63047;DHT22;62025;39.238;9.126;2023-12-20T06:00:16;10.30;74.30
63047;DHT22;62025;39.238;9.126;2023-12-20T06:02:43;10.30;74.70
63047;DHT22;62025;39.238;9.126;2023-12-20T06:05:09;10.40;74.60
63047;DHT22;62025;39.238;9.126;2023-12-20T06:07:35;10.40;74.70
63047;DHT22;62025;39.238;9.126;2023-12-20T06:10:01;10.30;74.90
63047;DHT22;62025;39.238;9.126;2023-12-20T06:12:27;10.40;74.70
63047;DHT22;62025;39.238;9.126;2023-12-20T06:14:54;10.40;74.80
63047;DHT22;62025;39.238;9.126;2023-12-20T06:17:20;10.40;74.80
63047;DHT22;62025;39.238;9.126;2023-12-20T06:19:46;10.40;75.00
63047;DHT22;62025;39.238;9.126;2023-12-20T06:22:15;10.40;74.90
63047;DHT22;62025;39.238;9.126;2023-12-20T06:24:41;10.40;74.90
63047;DHT22;62025;39.238;9.126;2023-12-20T06:27:07;10.30;74.80
63047;DHT22;62025;39.238;9.126;2023-12-20T06:29:33;10.40;74.80
63047;DHT22;62025;39.238;9.126;2023-12-20T06:32:00;10.30;75.00
63047;DHT22;62025;39.238;9.126;2023-12-20T06:34:26;10.30;74.90
63047;DHT22;62025;39.238;9.126;2023-12-20T06:36:52;10.40;74.80
63047;DHT22;62025;39.238;9.126;2023-12-20T06:39:18;10.40;74.70
63047;DHT22;62025;39.238;9.126;2023-12-20T06:41:44;10.30;74.80
63047;DHT22;62025;39.238;9.126;2023-12-20T06:44:10;10.30;75.00
63047;DHT22;62025;39.238;9.126;2023-12-20T06:46:36;10.30;75.00
63047;DHT22;62025;39.238;9.126;2023-12-20T06:49:02;10.40;75.20
63047;DHT22;62025;39.238;9.126;2023-12-20T06:51:28;10.60;74.70
63047;DHT22;62025;39.238;9.126;2023-12-20T06:53:54;10.70;74.50
63047;DHT22;62025;39.238;9.126;2023-12-20T06:56:20;10.80;74.30
63047;DHT22;62025;39.238;9.126;2023-12-20T06:58:46;10.90;74.20
63047;DHT22;62025;39.238;9.126;2023-12-20T07:01:13;10.80;74.50
63047;DHT22;62025;39.238;9.126;2023-12-20T07:03:40;10.70;75.00
63047;DHT22;62025;39.238;9.126;2023-12-20T07:06:06;10.70;75.30
63047;DHT22;62025;39.238;9.126;2023-12-20T07:08:32;10.60;75.40
63047;DHT22;62025;39.238;9.126;2023-12-20T07:10:58;11.10;74.90
63047;DHT22;62025;39.238;9.126;2023-12-20T07:13:24;11.60;73.70
63047;DHT22;62025;39.238;9.126;2023-12-20T07:15:50;12.00;72.80
63047;DHT22;62025;39.238;9.126;2023-12-20T07:18:16;12.30;71.60
63047;DHT22;62025;39.238;9.126;2023-12-20T07:20:43;12.60;70.50
63047;DHT22;62025;39.238;9.126;2023-12-20T07:23:09;12.90;69.60
63047;DHT22;62025;39.238;9.126;2023-12-20T07:25:35;13.10;68.70
63047;DHT22;62025;39.238;9.126;2023-12-20T07:28:01;13.30;68.00
63047;DHT22;62025;39.238;9.126;2023-12-20T07:30:27;13.50;67.20
63047;DHT22;62025;39.238;9.126;2023-12-20T07:32:53;13.80;66.50
63047;DHT22;62025;39.238;9.126;2023-12-20T07:35:19;13.90;65.90
63047;DHT22;62025;39.238;9.126;2023-12-20T07:37:45;14.10;65.10
63047;DHT22;62025;39.238;9.126;2023-12-20T07:40:11;14.30;64.60
63047;DHT22;62025;39.238;9.126;2023-12-20T07:42:37;14.40;64.10
63047;DHT22;62025;39.238;9.126;2023-12-20T07:45:04;14.70;63.60
63047;DHT22;62025;39.238;9.126;2023-12-20T07:47:30;14.80;62.90
63047;DHT22;62025;39.238;9.126;2023-12-20T07:49:56;15.00;62.50
63047;DHT22;62025;39.238;9.126;2023-12-20T07:52:23;15.10;62.10
63047;DHT22;62025;39.238;9.126;2023-12-20T07:54:49;15.30;61.60
63047;DHT22;62025;39.238;9.126;2023-12-20T07:57:15;15.60;61.00
63047;DHT22;62025;39.238;9.126;2023-12-20T07:59:41;15.80;60.70
63047;DHT22;62025;39.238;9.126;2023-12-20T08:02:07;16.20;59.70
63047;DHT22;62025;39.238;9.126;2023-12-20T08:04:33;16.30;58.90
63047;DHT22;62025;39.238;9.126;2023-12-20T08:06:59;15.90;60.00
63047;DHT22;62025;39.238;9.126;2023-12-20T08:09:26;16.20;59.60
63047;DHT22;62025;39.238;9.126;2023-12-20T08:11:52;16.30;59.20
63047;DHT22;62025;39.238;9.126;2023-12-20T08:14:17;16.30;59.40
63047;DHT22;62025;39.238;9.126;2023-12-20T08:16:44;16.80;58.70
63047;DHT22;62025;39.238;9.126;2023-12-20T08:19:10;17.10;58.00
63047;DHT22;62025;39.238;9.126;2023-12-20T08:21:35;17.30;58.00
63047;DHT22;62025;39.238;9.126;2023-12-20T08:24:02;17.80;57.10
63047;DHT22;62025;39.238;9.126;2023-12-20T08:26:28;17.90;56.50
63047;DHT22;62025;39.238;9.126;2023-12-20T08:28:54;18.00;56.10
63047;DHT22;62025;39.238;9.126;2023-12-20T08:31:20;18.10;55.70
63047;DHT22;62025;39.238;9.126;2023-12-20T08:33:48;18.30;55.40
63047;DHT22;62025;39.238;9.126;2023-12-20T08:36:14;18.40;54.70
63047;DHT22;62025;39.238;9.126;2023-12-20T08:38:43;18.50;54.50
63047;DHT22;62025;39.238;9.126;2023-12-20T08:41:09;18.70;54.00
63047;DHT22;62025;39.238;9.126;2023-12-20T08:43:35;18.80;53.70
63047;DHT22;62025;39.238;9.126;2023-12-20T08:46:01;18.90;53.30
63047;DHT22;62025;39.238;9.126;2023-12-20T08:48:28;19.10;53.10
63047;DHT22;62025;39.238;9.126;2023-12-20T08:50:54;19.30;52.50
63047;DHT22;62025;39.238;9.126;2023-12-20T08:53:21;18.70;53.80
63047;DHT22;62025;39.238;9.126;2023-12-20T08:55:47;19.00;53.40
63047;DHT22;62025;39.238;9.126;2023-12-20T08:58:14;19.40;52.60
63047;DHT22;62025;39.238;9.126;2023-12-20T09:00:40;18.90;53.60
63047;DHT22;62025;39.238;9.126;2023-12-20T09:03:06;19.40;53.20
63047;DHT22;62025;39.238;9.126;2023-12-20T09:05:32;19.70;52.40
63047;DHT22;62025;39.238;9.126;2023-12-20T09:07:58;20.00;51.70
63047;DHT22;62025;39.238;9.126;2023-12-20T09:10:24;20.30;51.30
63047;DHT22;62025;39.238;9.126;2023-12-20T09:12:51;20.40;50.70
63047;DHT22;62025;39.238;9.126;2023-12-20T09:15:23;20.50;50.40
63047;DHT22;62025;39.238;9.126;2023-12-20T09:17:50;20.50;50.30
63047;DHT22;62025;39.238;9.126;2023-12-20T09:20:16;20.40;50.40
63047;DHT22;62025;39.238;9.126;2023-12-20T09:22:42;20.30;50.70
63047;DHT22;62025;39.238;9.126;2023-12-20T09:25:10;20.30;50.80
63047;DHT22;62025;39.238;9.126;2023-12-20T09:27:37;20.30;50.50
63047;DHT22;62025;39.238;9.126;2023-12-20T09:30:03;20.30;50.80
63047;DHT22;62025;39.238;9.126;2023-12-20T09:32:31;20.20;51.10
63047;DHT22;62025;39.238;9.126;2023-12-20T09:34:57;20.10;51.20
63047;DHT22;62025;39.238;9.126;2023-12-20T09:37:26;20.00;51.40
63047;DHT22;62025;39.238;9.126;2023-12-20T09:39:53;19.90;51.90
63047;DHT22;62025;39.238;9.126;2023-12-20T09:42:58;20.00;51.90
63047;DHT22;62025;39.238;9.126;2023-12-20T09:45:30;19.90;52.20
63047;DHT22;62025;39.238;9.126;2023-12-20T09:47:58;20.00;52.10
63047;DHT22;62025;39.238;9.126;2023-12-20T09:50:24;20.00;52.30
63047;DHT22;62025;39.238;9.126;2023-12-20T09:52:52;19.90;52.30
63047;DHT22;62025;39.238;9.126;2023-12-20T09:55:19;20.10;52.20
63047;DHT22;62025;39.238;9.126;2023-12-20T09:57:49;20.20;52.00
63047;DHT22;62025;39.238;9.126;2023-12-20T10:00:15;20.10;51.80
63047;DHT22;62025;39.238;9.126;2023-12-20T10:02:56;20.10;52.00
63047;DHT22;62025;39.238;9.126;2023-12-20T10:05:27;20.20;52.00
63047;DHT22;62025;39.238;9.126;2023-12-20T10:07:57;20.30;51.80
63047;DHT22;62025;39.238;9.126;2023-12-20T10:10:25;20.30;51.70
63047;DHT22;62025;39.238;9.126;2023-12-20T10:15:35;20.20;51.90
63047;DHT22;62025;39.238;9.126;2023-12-20T10:18:02;20.20;52.40
63047;DHT22;62025;39.238;9.126;2023-12-20T10:20:30;20.10;52.30
63047;DHT22;62025;39.238;9.126;2023-12-20T10:22:57;20.30;52.20
63047;DHT22;62025;39.238;9.126;2023-12-20T10:25:25;20.20;52.10
63047;DHT22;62025;39.238;9.126;2023-12-20T10:28:08;19.90;52.70
63047;DHT22;62025;39.238;9.126;2023-12-20T10:30:36;19.90;53.00
63047;DHT22;62025;39.238;9.126;2023-12-20T10:33:02;19.90;52.90
63047;DHT22;62025;39.238;9.126;2023-12-20T10:35:28;19.80;53.10
63047;DHT22;62025;39.238;9.126;2023-12-20T10:37:56;19.50;53.70
63047;DHT22;62025;39.238;9.126;2023-12-20T10:40:22;19.40;54.40
63047;DHT22;62025;39.238;9.126;2023-12-20T10:42:49;19.30;54.60
63047;DHT22;62025;39.238;9.126;2023-12-20T10:45:16;19.20;55.00
63047;DHT22;62025;39.238;9.126;2023-12-20T10:47:46;18.90;55.70
63047;DHT22;62025;39.238;9.126;2023-12-20T10:50:12;18.90;56.00
63047;DHT22;62025;39.238;9.126;2023-12-20T10:52:40;18.90;55.80
63047;DHT22;62025;39.238;9.126;2023-12-20T10:55:07;18.90;56.10
63047;DHT22;62025;39.238;9.126;2023-12-20T10:57:35;18.90;56.30
63047;DHT22;62025;39.238;9.126;2023-12-20T11:00:02;18.60;56.80
63047;DHT22;62025;39.238;9.126;2023-12-20T11:02:32;18.50;57.20
63047;DHT22;62025;39.238;9.126;2023-12-20T11:05:31;18.40;57.40
63047;DHT22;62025;39.238;9.126;2023-12-20T11:08:53;18.20;57.80
63047;DHT22;62025;39.238;9.126;2023-12-20T11:11:37;18.20;57.90
63047;DHT22;62025;39.238;9.126;2023-12-20T11:14:22;18.10;58.10
63047;DHT22;62025;39.238;9.126;2023-12-20T11:16:50;17.90;58.40
63047;DHT22;62025;39.238;9.126;2023-12-20T11:19:31;17.90;58.80
63047;DHT22;62025;39.238;9.126;2023-12-20T11:21:57;17.80;58.90
63047;DHT22;62025;39.238;9.126;2023-12-20T11:24:23;17.60;59.10
63047;DHT22;62025;39.238;9.126;2023-12-20T11:26:56;17.60;59.20
63047;DHT22;62025;39.238;9.126;2023-12-20T11:29:35;17.40;59.10
63047;DHT22;62025;39.238;9.126;2023-12-20T11:34:57;17.20;60.20
63047;DHT22;62025;39.238;9.126;2023-12-20T11:37:31;17.10;60.30
63047;DHT22;62025;39.238;9.126;2023-12-20T11:40:08;17.10;60.50
63047;DHT22;62025;39.238;9.126;2023-12-20T11:42:41;17.10;60.70
63047;DHT22;62025;39.238;9.126;2023-12-20T11:45:09;17.10;60.60
63047;DHT22;62025;39.238;9.126;2023-12-20T11:47:48;17.00;60.40
63047;DHT22;62025;39.238;9.126;2023-12-20T11:50:16;16.90;60.40
63047;DHT22;62025;39.238;9.126;2023-12-20T11:52:43;16.90;60.40
63047;DHT22;62025;39.238;9.126;2023-12-20T11:55:09;16.80;60.60
63047;DHT22;62025;39.238;9.126;2023-12-20T11:57:36;16.80;60.80
63047;DHT22;62025;39.238;9.126;2023-12-20T12:00:03;16.80;60.90
63047;DHT22;62025;39.238;9.126;2023-12-20T12:02:37;16.80;61.10
63047;DHT22;62025;39.238;9.126;2023-12-20T12:05:04;16.70;61.00
63047;DHT22;62025;39.238;9.126;2023-12-20T12:07:36;16.70;61.10
63047;DHT22;62025;39.238;9.126;2023-12-20T12:10:02;16.60;61.40
63047;DHT22;62025;39.238;9.126;2023-12-20T12:12:29;16.60;61.70
63047;DHT22;62025;39.238;9.126;2023-12-20T12:14:55;16.60;61.80
63047;DHT22;62025;39.238;9.126;2023-12-20T12:17:23;16.60;62.00
63047;DHT22;62025;39.238;9.126;2023-12-20T12:19:49;16.60;61.80
63047;DHT22;62025;39.238;9.126;2023-12-20T12:22:15;16.40;61.90
63047;DHT22;62025;39.238;9.126;2023-12-20T12:24:46;16.40;61.90
63047;DHT22;62025;39.238;9.126;2023-12-20T12:27:13;16.40;62.20
63047;DHT22;62025;39.238;9.126;2023-12-20T12:29:40;16.40;62.50
63047;DHT22;62025;39.238;9.126;2023-12-20T12:32:09;16.30;62.60
63047;DHT22;62025;39.238;9.126;2023-12-20T12:34:35;16.30;62.90
63047;DHT22;62025;39.238;9.126;2023-12-20T12:37:06;16.30;63.10
63047;DHT22;62025;39.238;9.126;2023-12-20T12:39:32;16.30;62.90
63047;DHT22;62025;39.238;9.126;2023-12-20T12:41:59;16.40;62.40
63047;DHT22;62025;39.238;9.126;2023-12-20T12:44:25;16.30;62.30
63047;DHT22;62025;39.238;9.126;2023-12-20T12:46:52;16.30;62.40
63047;DHT22;62025;39.238;9.126;2023-12-20T12:49:22;16.30;62.70
63047;DHT22;62025;39.238;9.126;2023-12-20T12:51:48;16.30;62.80
63047;DHT22;62025;39.238;9.126;2023-12-20T12:54:14;16.30;62.90
63047;DHT22;62025;39.238;9.126;2023-12-20T12:56:42;16.30;62.30
63047;DHT22;62025;39.238;9.126;2023-12-20T12:59:09;16.20;62.30
63047;DHT22;62025;39.238;9.126;2023-12-20T13:01:35;16.20;61.00
63047;DHT22;62025;39.238;9.126;2023-12-20T13:04:01;16.20;60.30
63047;DHT22;62025;39.238;9.126;2023-12-20T13:06:29;16.10;60.30
63047;DHT22;62025;39.238;9.126;2023-12-20T13:08:55;16.10;60.30
63047;DHT22;62025;39.238;9.126;2023-12-20T13:11:21;16.10;60.40
63047;DHT22;62025;39.238;9.126;2023-12-20T13:13:47;16.10;60.20
63047;DHT22;62025;39.238;9.126;2023-12-20T13:16:13;16.00;60.00
63047;DHT22;62025;39.238;9.126;2023-12-20T13:18:39;16.00;60.40
63047;DHT22;62025;39.238;9.126;2023-12-20T13:21:08;16.00;60.70
63047;DHT22;62025;39.238;9.126;2023-12-20T13:23:35;16.00;60.70
63047;DHT22;62025;39.238;9.126;2023-12-20T13:26:02;16.00;61.00
63047;DHT22;62025;39.238;9.126;2023-12-20T13:28:28;16.00;61.10
63047;DHT22;62025;39.238;9.126;2023-12-20T13:30:54;16.00;61.40
63047;DHT22;62025;39.238;9.126;2023-12-20T13:33:20;16.00;61.50
63047;DHT22;62025;39.238;9.126;2023-12-20T13:35:47;16.00;61.70
63047;DHT22;62025;39.238;9.126;2023-12-20T13:38:13;16.00;61.90
63047;DHT22;62025;39.238;9.126;2023-12-20T13:40:39;15.90;61.80
63047;DHT22;62025;39.238;9.126;2023-12-20T13:43:05;15.90;61.60
63047;DHT22;62025;39.238;9.126;2023-12-20T13:45:32;15.90;61.70
63047;DHT22;62025;39.238;9.126;2023-12-20T13:47:58;15.80;61.20
63047;DHT22;62025;39.238;9.126;2023-12-20T13:50:24;15.80;61.30
63047;DHT22;62025;39.238;9.126;2023-12-20T13:52:51;15.80;61.00
63047;DHT22;62025;39.238;9.126;2023-12-20T13:55:17;15.80;61.30
63047;DHT22;62025;39.238;9.126;2023-12-20T13:57:47;15.80;61.40
63047;DHT22;62025;39.238;9.126;2023-12-20T14:00:15;15.80;61.40
63047;DHT22;62025;39.238;9.126;2023-12-20T14:02:42;15.80;61.40
63047;DHT22;62025;39.238;9.126;2023-12-20T14:05:09;15.70;61.70
63047;DHT22;62025;39.238;9.126;2023-12-20T14:07:40;15.70;62.50
63047;DHT22;62025;39.238;9.126;2023-12-20T14:10:06;15.80;62.80
63047;DHT22;62025;39.238;9.126;2023-12-20T14:12:32;15.80;63.20
63047;DHT22;62025;39.238;9.126;2023-12-20T14:15:01;15.70;63.10
63047;DHT22;62025;39.238;9.126;2023-12-20T14:17:28;15.70;63.20
63047;DHT22;62025;39.238;9.126;2023-12-20T14:19:53;15.70;62.60
63047;DHT22;62025;39.238;9.126;2023-12-20T14:22:20;15.60;62.50
63047;DHT22;62025;39.238;9.126;2023-12-20T14:24:46;15.60;62.00
63047;DHT22;62025;39.238;9.126;2023-12-20T14:27:12;15.60;61.90
63047;DHT22;62025;39.238;9.126;2023-12-20T14:29:38;15.60;61.50
63047;DHT22;62025;39.238;9.126;2023-12-20T14:32:05;15.60;61.00
63047;DHT22;62025;39.238;9.126;2023-12-20T14:34:31;15.50;60.40
63047;DHT22;62025;39.238;9.126;2023-12-20T14:36:57;15.50;59.50
63047;DHT22;62025;39.238;9.126;2023-12-20T14:39:23;15.50;59.10
63047;DHT22;62025;39.238;9.126;2023-12-20T14:41:49;15.50;59.40
63047;DHT22;62025;39.238;9.126;2023-12-20T14:44:15;15.50;59.70
63047;DHT22;62025;39.238;9.126;2023-12-20T14:46:42;15.50;59.70
63047;DHT22;62025;39.238;9.126;2023-12-20T14:49:08;15.50;59.70
63047;DHT22;62025;39.238;9.126;2023-12-20T14:51:34;15.40;59.50
63047;DHT22;62025;39.238;9.126;2023-12-20T14:54:02;15.50;59.70
63047;DHT22;62025;39.238;9.126;2023-12-20T14:56:28;15.40;59.70
63047;DHT22;62025;39.238;9.126;2023-12-20T14:58:54;15.40;59.50
63047;DHT22;62025;39.238;9.126;2023-12-20T15:01:20;15.40;59.70
63047;DHT22;62025;39.238;9.126;2023-12-20T15:03:47;15.40;60.00
63047;DHT22;62025;39.238;9.126;2023-12-20T15:06:14;15.30;60.40
63047;DHT22;62025;39.238;9.126;2023-12-20T15:08:40;15.30;60.60
63047;DHT22;62025;39.238;9.126;2023-12-20T15:11:06;15.30;60.60
63047;DHT22;62025;39.238;9.126;2023-12-20T15:13:32;15.30;60.80
63047;DHT22;62025;39.238;9.126;2023-12-20T15:15:58;15.30;61.20
63047;DHT22;62025;39.238;9.126;2023-12-20T15:18:24;15.30;61.40
63047;DHT22;62025;39.238;9.126;2023-12-20T15:20:50;15.30;61.40
63047;DHT22;62025;39.238;9.126;2023-12-20T15:23:16;15.30;61.70
63047;DHT22;62025;39.238;9.126;2023-12-20T15:25:47;15.20;62.10
63047;DHT22;62025;39.238;9.126;2023-12-20T15:28:13;15.20;62.00
63047;DHT22;62025;39.238;9.126;2023-12-20T15:30:39;15.20;62.40
63047;DHT22;62025;39.238;9.126;2023-12-20T15:33:05;15.20;62.60
63047;DHT22;62025;39.238;9.126;2023-12-20T15:35:31;15.20;62.70
63047;DHT22;62025;39.238;9.126;2023-12-20T15:37:57;15.10;62.90